Flight Track Log - Related Links

Times and Time Zones

All times are in EDT time to prevent confusion due to time zone crossing. See the DAL1214 flight status page for this flight to view local times or setup timezone preferences in your user account.

Time Position Orientation Groundspeed Altitude Reporting Facility
EDT Latitude Longitude Course Direction KTS MPH feet Rate Location/Type
Sun 07:07:31 PM 33.6497 -84.3483 North 438 504 3,000  Level Atlanta Center
Sun 07:08:31 PM 33.6708 -84.2633 73° East 301 346 5,100 2,200 Climbing Atlanta Center
Sun 07:09:31 PM 33.7147 -84.1861 56° Northeast 287 330 7,400 2,350 Climbing Atlanta Center
Sun 07:10:31 PM 33.7878 -84.1814 North 316 364 9,800 1,300 Climbing Atlanta Center
Sun 07:11:00 PM 34.1075 -84.2667 North  Level FlightAware Approximate
Sun 07:11:31 PM 33.8756 -84.2089 345° North 316 364 10,000  Level Atlanta Center
Sun 07:12:00 PM 34.2412 -84.2667 North  Level FlightAware Approximate
Sun 07:12:31 PM 33.9464 -84.2742 323° Northwest 306 352 11,400  Level Atlanta Center
Sun 07:13:31 PM 34.0467 -84.2769 359° North 328 377 13,800 2,500 Climbing Atlanta Center
Sun 07:14:31 PM 34.1508 -84.2772 360° North 363 418 16,400 2,150 Climbing Atlanta Center
Sun 07:15:31 PM 34.2594 -84.2775 360° North 379 436 18,100 1,650 Climbing Atlanta Center
Sun 07:16:31 PM 34.3681 -84.2578 North 385 443 19,700 1,550 Climbing Atlanta Center
Sun 07:17:31 PM 34.4808 -84.2328 10° North 395 455 21,200 1,550 Climbing Atlanta Center
Sun 07:18:31 PM 34.5956 -84.2078 10° North 408 470 22,800 1,450 Climbing Atlanta Center
Sun 07:19:31 PM 34.7208 -84.1778 11° North 418 481 24,100 1,250 Climbing Atlanta Center
Sun 07:20:31 PM 34.8419 -84.1500 11° North 423 487 25,300 1,100 Climbing Atlanta Center
Sun 07:21:31 PM 34.9672 -84.1197 11° North 435 501 26,300 1,100 Climbing Atlanta Center
Sun 07:22:31 PM 35.0903 -84.0894 11° North 447 514 27,500 800 Climbing Atlanta Center
Sun 07:23:31 PM 35.2197 -84.0592 11° North 453 521 27,900 650 Climbing Atlanta Center
Sun 07:24:31 PM 35.3511 -84.0261 12° North 468 539 28,800 850 Climbing Atlanta Center
Sun 07:25:31 PM 35.4847 -83.9928 11° North 473 544 29,600 1,100 Climbing Atlanta Center
Sun 07:26:31 PM 35.6181 -83.9622 11° North 483 556 31,000 1,150 Climbing Atlanta Center
Sun 07:27:31 PM 35.7494 -83.9286 12° North 483 556 31,900 700 Climbing Atlanta Center
Sun 07:28:31 PM 35.8808 -83.8953 12° North 483 556 32,400 550 Climbing Atlanta Center
Sun 07:29:31 PM 36.0039 -83.8308 23° Northeast 476 548 33,000 300 Climbing Atlanta Center
Sun 07:30:31 PM 36.1247 -83.7533 27° Northeast 481 554 33,000  Level Atlanta Center
Sun 07:31:31 PM 36.2456 -83.6758 27° Northeast 481 554 33,000  Level Atlanta Center
Sun 07:32:57 PM 36.4097 -83.5683 28° Northeast 487 560 33,000  Level Indianapolis Center
Sun 07:33:59 PM 36.5419 -83.4864 26° Northeast 496 571 33,000  Level Indianapolis Center
Sun 07:35:01 PM 36.6633 -83.4017 29° Northeast 499 574 33,000  Level Indianapolis Center
Sun 07:36:03 PM 36.7753 -83.2942 38° Northeast 509 586 33,000  Level Indianapolis Center
Sun 07:37:05 PM 36.8889 -83.1858 37° Northeast 511 588 33,000  Level Indianapolis Center
Sun 07:38:07 PM 37.0053 -83.0764 37° Northeast 514 592 33,000  Level Indianapolis Center
Sun 07:39:09 PM 37.1219 -82.9656 37° Northeast 516 594 33,000  Level Indianapolis Center
Sun 07:40:11 PM 37.2367 -82.8564 37° Northeast 512 589 33,000  Level Indianapolis Center
Sun 07:41:13 PM 37.3697 -82.7300 37° Northeast 513 590 33,000  Level Indianapolis Center
Sun 07:42:14 PM 37.4847 -82.6233 36° Northeast 512 589 33,000 -390 Level Indianapolis Center
Sun 07:43:16 PM 37.5989 -82.5142 37° Northeast 513 590 32,200 -1,355 Descending Indianapolis Center
Sun 07:44:18 PM 37.7114 -82.4019 38° Northeast 515 593 30,200 -1,548 Descending Indianapolis Center
Sun 07:45:20 PM 37.8269 -82.2897 37° Northeast 521 600 29,000 -581 Descending Indianapolis Center
Sun 07:46:22 PM 37.9428 -82.1764 38° Northeast 524 603 29,000  Level Indianapolis Center
Sun 07:47:24 PM 38.0747 -82.0467 38° Northeast 532 612 29,000  Level Indianapolis Center
Sun 07:48:25 PM 38.1900 -81.9311 38° Northeast 529 609 29,000  Level Indianapolis Center
Sun 07:49:27 PM 38.3058 -81.8164 38° Northeast 528 608 29,000  Level Indianapolis Center
Sun 07:50:29 PM 38.4114 -81.6869 44° Northeast 526 605 29,000  Level Indianapolis Center
Sun 07:51:31 PM 38.5072 -81.5483 49° Northeast 527 606 29,000  Level Indianapolis Center
Sun 07:52:32 PM 38.6217 -81.3825 49° Northeast 531 611 29,000  Level Indianapolis Center
Sun 07:53:34 PM 38.7181 -81.2461 48° Northeast 528 608 29,000  Level Indianapolis Center
Sun 07:54:36 PM 38.8150 -81.1058 48° Northeast 529 609 29,000  Level Indianapolis Center
Sun 07:55:38 PM 38.9131 -80.9636 48° Northeast 535 616 29,000  Level Indianapolis Center
Sun 07:56:39 PM 39.0111 -80.8206 49° Northeast 534 615 29,000  Level Indianapolis Center
Sun 07:57:41 PM 39.1106 -80.6819 47° Northeast 531 611 29,000  Level Indianapolis Center
Sun 07:58:43 PM 39.2294 -80.5175 47° Northeast 524 603 29,000 -435 Level Indianapolis Center
Sun 07:59:45 PM 39.3239 -80.3836 48° Northeast 505 581 28,100 -976 Descending Indianapolis Center
Sun 08:00:46 PM 39.4142 -80.2556 48° Northeast 488 562 27,000 -680 Descending Indianapolis Center
Sun 08:01:22 PM 39.4744 -80.1769 45° Northeast 482 555 27,000  Level Cleveland Center
Sun 08:02:22 PM 39.5614 -80.0525 48° Northeast 472 543 27,000  Level Cleveland Center
Sun 08:03:22 PM 39.6464 -79.9281 48° Northeast 466 536 27,000  Level Cleveland Center
Sun 08:04:22 PM 39.7331 -79.8003 49° Northeast 466 536 27,000  Level Cleveland Center
Sun 08:05:22 PM 39.8175 -79.6722 49° Northeast 466 536 27,000  Level Cleveland Center
Sun 08:06:22 PM 39.9039 -79.5467 48° Northeast 466 536 27,000  Level Cleveland Center
Sun 08:07:22 PM 39.9883 -79.4233 48° Northeast 461 531 27,000  Level Cleveland Center
Sun 08:08:22 PM 40.0581 -79.3083 52° Northeast 461 531 27,000  Level Cleveland Center
Sun 08:09:22 PM 40.1461 -79.1817 48° Northeast 461 531 27,000  Level Cleveland Center
Sun 08:10:22 PM 40.2300 -79.0519 50° Northeast 461 531 27,000  Level Cleveland Center
Sun 08:11:22 PM 40.3136 -78.9247 49° Northeast 461 531 27,000  Level Cleveland Center
Sun 08:12:22 PM 40.3992 -78.7947 49° Northeast 461 531 27,000  Level Cleveland Center
Sun 08:14:31 PM 40.5853 -78.5111 49° Northeast 472 543 27,000  Level New York Center
Sun 08:15:28 PM 40.6731 -78.3786 49° Northeast 472 543 27,000  Level New York Center
Sun 08:16:29 PM 40.7564 -78.2481 50° Northeast 472 543 27,000  Level New York Center
Sun 08:17:29 PM 40.8397 -78.1172 50° Northeast 472 543 27,000  Level New York Center
Sun 08:18:29 PM 40.9139 -77.9961 51° Northeast 472 543 27,000  Level New York Center
Sun 08:19:30 PM 40.9831 -77.8494 58° Northeast 466 536 27,000  Level New York Center
Sun 08:20:28 PM 41.0503 -77.7022 59° Northeast 466 536 27,000  Level New York Center
Sun 08:21:28 PM 41.1150 -77.5544 60° Northeast 461 531 27,000  Level New York Center
Sun 08:23:29 PM 41.2439 -77.2611 60° Northeast 461 531 27,000  Level New York Center
Sun 08:24:30 PM 41.3061 -77.1125 61° Northeast 456 525 27,000 -403 Level New York Center
Sun 08:25:28 PM 41.3700 -76.9719 59° Northeast 451 519 26,200 -1,008 Descending New York Center
Sun 08:26:29 PM 41.4361 -76.8175 60° Northeast 440 506 25,000 -590 Descending New York Center
Sun 08:27:30 PM 41.4950 -76.6814 60° Northeast 430 495 25,000  Level New York Center
Sun 08:28:28 PM 41.5539 -76.5425 60° Northeast 425 489 25,000  Level New York Center
Sun 08:29:29 PM 41.6128 -76.4033 60° Northeast 425 489 25,000  Level New York Center
Sun 08:31:00 PM 41.7003 -76.1969 60° Northeast 419 482 25,000  Level Boston Center
Sun 08:32:00 PM 41.7478 -76.0828 61° Northeast 424 488 25,000  Level Boston Center
Sun 08:33:00 PM 41.8175 -75.9169 61° Northeast 430 495 25,000  Level Boston Center
Sun 08:34:00 PM 41.8761 -75.7750 61° Northeast 430 495 25,000  Level Boston Center
Sun 08:35:00 PM 41.9322 -75.6383 61° Northeast 430 495 25,000  Level Boston Center
Sun 08:36:00 PM 41.9903 -75.4989 61° Northeast 424 488 25,000  Level Boston Center
Sun 08:37:00 PM 42.0461 -75.3589 62° Northeast 424 488 25,000  Level Boston Center
Sun 08:38:00 PM 42.1078 -75.2219 59° Northeast 424 488 25,000  Level Boston Center
Sun 08:39:00 PM 42.1761 -75.0736 58° Northeast 429 494 25,000  Level Boston Center
Sun 08:40:00 PM 42.2375 -74.9331 59° Northeast 424 488 25,000  Level Boston Center
Sun 08:41:00 PM 42.3031 -74.7925 58° Northeast 430 495 25,000  Level Boston Center
Sun 08:42:00 PM 42.3642 -74.6544 59° Northeast 430 495 25,000  Level Boston Center
Sun 08:43:00 PM 42.4272 -74.5217 57° Northeast 430 495 25,000  Level Boston Center
Sun 08:44:00 PM 42.4858 -74.3828 60° Northeast 425 489 25,000  Level Boston Center
Sun 08:45:00 PM 42.5136 -74.2231 77° East 414 476 25,000 -500 Level Boston Center
Sun 08:46:00 PM 42.5389 -74.0689 77° East 419 482 24,000 -950 Descending Boston Center
Sun 08:47:00 PM 42.5617 -73.9144 79° East 414 476 23,100 -1,100 Descending Boston Center
Sun 08:48:00 PM 42.5822 -73.7711 79° East 404 465 21,800 -1,450 Descending Boston Center
Sun 08:49:00 PM 42.6047 -73.6275 78° East 393 452 20,200 -1,350 Descending Boston Center
Sun 08:50:00 PM 42.6247 -73.4869 79° East 388 447 19,100 -600 Descending Boston Center
Sun 08:51:00 PM 42.6447 -73.3489 79° East 375 432 19,000 -50 Descending Boston Center
Sun 08:52:00 PM 42.6644 -73.2081 79° East 375 432 19,000  Level Boston Center
Sun 08:53:00 PM 42.6822 -73.0700 80° East 370 426 19,000  Level Boston Center
Sun 08:54:00 PM 42.7014 -72.9600 77° East 370 426 19,000 -300 Level Boston Center
Sun 08:55:00 PM 42.7228 -72.8075 79° East 370 426 18,400 -850 Descending Boston Center
Sun 08:56:00 PM 42.7400 -72.6747 80° East 365 420 17,300 -1,500 Descending Boston Center
Sun 08:57:00 PM 42.7589 -72.5392 79° East 365 420 15,400 -1,650 Descending Boston Center
Sun 08:58:00 PM 42.7775 -72.4033 79° East 365 420 14,000 -1,750 Descending Boston Center
Sun 08:59:00 PM 42.7942 -72.2758 80° East 358 412 11,900 -1,750 Descending Boston Center
Sun 09:00:00 PM 42.8022 -72.1431 85° East 327 376 10,500 -1,200 Descending Boston Center
Sun 09:01:00 PM 42.8208 -72.0494 75° East 292 336 9,500 -1,300 Descending Boston Center
Sun 09:02:00 PM 42.8661 -71.9528 57° Northeast 276 318 7,900 -1,550 Descending Boston Center
Sun 09:03:00 PM 42.9033 -71.8733 57° Northeast 276 318 6,400 -1,400 Descending Boston Center
Sun 09:04:00 PM 42.9508 -71.7792 55° Northeast 276 318 5,100 -1,150 Descending Boston Center
Sun 09:05:00 PM 42.9856 -71.6964 60° Northeast 276 318 4,100 -1,050 Descending Boston Center
Sun 09:06:00 PM 43.0247 -71.5994 61° Northeast 271 312 3,000 -1,100 Descending Boston Center

Login

Don't have an account? Register now (free) for customized features, flight alerts, and more!